createdAt,value
2023-01-19T00:00:26.255Z,194.42
2023-01-19T00:01:26.544Z,195.23
2023-01-19T00:02:26.451Z,194.77
2023-01-19T00:03:26.546Z,197.94
2023-01-19T00:04:26.656Z,196.99
2023-01-19T00:05:26.760Z,199.75
2023-01-19T00:06:26.993Z,198.66
2023-01-19T00:07:26.984Z,200.60
2023-01-19T00:08:27.721Z,199.87
2023-01-19T00:09:27.218Z,200.11
2023-01-19T00:10:27.349Z,202.83
2023-01-19T00:11:27.568Z,202.33
2023-01-19T00:12:27.546Z,202.58
2023-01-19T00:13:27.660Z,203.09
2023-01-19T00:14:27.788Z,204.10
2023-01-19T00:15:27.995Z,204.60
2023-01-19T00:16:28.032Z,204.35
2023-01-19T00:17:28.105Z,206.67
2023-01-19T00:18:28.220Z,207.71
2023-01-19T00:19:28.332Z,207.45
2023-01-19T00:20:28.436Z,209.30
2023-01-19T00:21:28.535Z,208.37
2023-01-19T00:22:28.664Z,210.11
2023-01-19T00:23:28.770Z,209.30
2023-01-19T00:24:28.893Z,208.90
2023-01-19T00:25:29.017Z,208.64
2023-01-19T00:26:29.149Z,210.24
2023-01-19T00:27:29.173Z,210.65
2023-01-19T00:28:29.315Z,210.92
2023-01-19T00:29:29.458Z,208.90
2023-01-19T00:30:29.594Z,208.51
2023-01-19T00:31:29.730Z,209.17
2023-01-19T00:32:29.761Z,210.65
2023-01-19T00:33:29.869Z,210.38
2023-01-19T00:34:29.980Z,208.64
2023-01-19T00:35:30.093Z,209.30
2023-01-19T00:36:30.209Z,208.77
2023-01-19T00:37:30.320Z,208.77
2023-01-19T00:38:30.433Z,207.71
2023-01-19T00:39:30.530Z,207.85
2023-01-19T00:40:30.643Z,208.11
2023-01-19T00:41:30.824Z,207.58
2023-01-19T00:42:30.858Z,207.85
2023-01-19T00:43:30.979Z,209.71
2023-01-19T00:44:31.077Z,211.05
2023-01-19T00:45:31.235Z,210.65
2023-01-19T00:46:31.346Z,212.28
2023-01-19T00:47:31.406Z,212.70
2023-01-19T00:48:31.520Z,214.36
2023-01-19T00:49:31.630Z,215.91
2023-01-19T00:50:31.736Z,216.49
2023-01-19T00:51:31.925Z,217.49
2023-01-19T00:52:31.986Z,218.07
2023-01-19T00:53:32.085Z,218.79
2023-01-19T00:54:32.217Z,219.67
2023-01-19T00:55:32.314Z,221.01
2023-01-19T00:56:32.434Z,222.35
2023-01-19T00:57:32.525Z,222.35
2023-01-19T00:58:32.651Z,224.18
2023-01-19T00:59:32.768Z,223.26
2023-01-19T01:00:32.879Z,226.03
2023-01-19T01:01:46.117Z,225.25
2023-01-19T01:02:34.261Z,226.03
2023-01-19T01:03:33.241Z,224.02
2023-01-19T01:04:33.331Z,226.34
2023-01-19T01:05:33.470Z,227.12
2023-01-19T01:06:33.570Z,225.25
2023-01-19T01:07:33.661Z,226.50
2023-01-19T01:08:33.773Z,228.55
2023-01-19T01:09:33.879Z,229.67
2023-01-19T01:10:33.988Z,229.51
2023-01-19T01:11:34.141Z,229.67
2023-01-19T01:12:34.269Z,230.64
2023-01-19T01:13:34.543Z,232.76
2023-01-19T01:14:34.447Z,232.10
2023-01-19T01:15:34.696Z,233.09
2023-01-19T01:16:34.753Z,233.59
2023-01-19T01:17:34.777Z,233.43
2023-01-19T01:18:34.897Z,234.59
2023-01-19T01:19:34.987Z,235.44
2023-01-19T01:20:35.109Z,234.43
2023-01-19T01:21:35.235Z,232.93
2023-01-19T01:22:35.347Z,233.76
2023-01-19T01:23:35.446Z,233.43
2023-01-19T01:24:35.595Z,234.26
2023-01-19T01:25:35.659Z,235.10
2023-01-19T01:26:35.811Z,234.09
2023-01-19T01:27:35.868Z,236.79
2023-01-19T01:28:35.966Z,235.44
2023-01-19T01:29:36.092Z,236.97
2023-01-19T01:30:36.206Z,240.62
2023-01-19T01:31:36.414Z,242.75
2023-01-19T01:32:36.396Z,242.39
2023-01-19T01:33:40.009Z,244.56
2023-01-19T01:34:37.664Z,245.11
2023-01-19T01:35:36.736Z,247.51
2023-01-19T01:36:36.872Z,245.84
2023-01-19T01:37:37.011Z,246.95
2023-01-19T01:38:37.116Z,248.26
2023-01-19T01:39:37.204Z,250.54
2023-01-19T01:40:37.326Z,253.24
2023-01-19T01:41:37.461Z,252.08
2023-01-19T01:42:37.542Z,252.08
2023-01-19T01:43:37.643Z,251.69
2023-01-19T01:44:37.739Z,253.63
2023-01-19T01:45:37.864Z,255.21
2023-01-19T01:46:37.985Z,256.61
2023-01-19T01:47:38.080Z,255.01
2023-01-19T01:48:38.188Z,255.01
2023-01-19T01:49:38.287Z,256.01
2023-01-19T01:50:38.493Z,254.82
2023-01-19T01:51:38.874Z,253.05
2023-01-19T01:52:38.608Z,255.41
2023-01-19T01:53:38.724Z,253.83
2023-01-19T01:54:38.829Z,256.21
2023-01-19T01:55:38.950Z,256.01
2023-01-19T01:56:39.104Z,256.81
2023-01-19T01:57:39.190Z,256.81
2023-01-19T01:58:39.303Z,256.81
2023-01-19T01:59:39.565Z,256.01
2023-01-19T02:00:39.512Z,254.03
2023-01-19T02:01:39.764Z,254.03
2023-01-19T02:02:39.770Z,252.46
2023-01-19T02:03:39.886Z,253.05
2023-01-19T02:04:39.964Z,252.08
2023-01-19T02:05:40.132Z,250.35
2023-01-19T02:06:40.170Z,249.20
2023-01-19T02:07:40.262Z,248.45
2023-01-19T02:08:40.385Z,248.45
2023-01-19T02:09:40.480Z,247.70
2023-01-19T02:10:40.579Z,248.26
2023-01-19T02:11:40.878Z,247.51
2023-01-19T02:12:40.901Z,246.40
2023-01-19T02:13:40.922Z,246.58
2023-01-19T02:14:41.026Z,247.14
2023-01-19T02:15:41.141Z,245.48
2023-01-19T02:16:41.292Z,247.14
2023-01-19T02:17:41.442Z,245.11
2023-01-19T02:18:41.559Z,245.84
2023-01-19T02:19:41.645Z,247.33
2023-01-19T02:20:41.795Z,246.03
2023-01-19T02:21:41.915Z,247.14
2023-01-19T02:22:41.983Z,244.93
2023-01-19T02:23:42.097Z,244.01
2023-01-19T02:24:42.195Z,244.38
2023-01-19T02:25:42.309Z,244.01
2023-01-19T02:26:42.423Z,244.01
2023-01-19T02:27:42.504Z,243.83
2023-01-19T02:28:42.651Z,241.86
2023-01-19T02:29:42.749Z,239.56
2023-01-19T02:30:42.880Z,239.74
2023-01-19T02:31:42.972Z,238.52
2023-01-19T02:32:43.111Z,236.62
2023-01-19T02:33:43.182Z,235.77
2023-01-19T02:34:43.308Z,235.10
2023-01-19T02:35:43.405Z,234.43
2023-01-19T02:36:43.510Z,232.43
2023-01-19T02:37:43.619Z,233.43
2023-01-19T02:38:43.711Z,233.93
2023-01-19T02:39:43.841Z,233.59
2023-01-19T02:40:43.980Z,232.93
2023-01-19T02:41:44.032Z,233.26
2023-01-19T02:42:44.187Z,233.26
2023-01-19T02:43:44.276Z,233.26
2023-01-19T02:44:44.407Z,233.26
2023-01-19T02:45:44.514Z,234.09
2023-01-19T02:46:44.578Z,233.09
2023-01-19T02:47:44.743Z,232.10
2023-01-19T02:48:44.857Z,232.43
2023-01-19T02:49:44.938Z,232.76
2023-01-19T02:50:45.053Z,231.78
2023-01-19T02:51:45.220Z,231.78
2023-01-19T02:52:45.322Z,231.29
2023-01-19T02:53:45.386Z,230.15
2023-01-19T02:54:45.486Z,230.96
2023-01-19T02:55:45.587Z,229.99
2023-01-19T02:56:45.769Z,230.48
2023-01-19T02:57:45.823Z,231.12
2023-01-19T02:58:45.935Z,228.55
2023-01-19T02:59:46.053Z,229.35
2023-01-19T03:00:46.153Z,228.87
2023-01-19T03:01:46.363Z,228.87
2023-01-19T03:02:46.431Z,229.83
2023-01-19T03:03:46.508Z,227.44
2023-01-19T03:04:46.604Z,226.50
2023-01-19T03:05:46.697Z,228.07
2023-01-19T03:06:46.809Z,227.91
2023-01-19T03:07:47.022Z,227.12
2023-01-19T03:08:47.060Z,227.76
2023-01-19T03:09:47.182Z,229.67
2023-01-19T03:10:47.279Z,229.51
2023-01-19T03:11:47.408Z,226.65
2023-01-19T03:12:47.656Z,228.39
2023-01-19T03:13:47.669Z,226.65
2023-01-19T03:14:47.749Z,228.39
2023-01-19T03:15:47.900Z,228.39
2023-01-19T03:16:48.047Z,227.76
2023-01-19T03:17:48.116Z,229.19
2023-01-19T03:18:48.197Z,229.19
2023-01-19T03:19:48.289Z,229.19
2023-01-19T03:20:48.416Z,229.19
2023-01-19T03:21:48.514Z,230.96
2023-01-19T03:22:48.704Z,229.83
2023-01-19T03:23:48.721Z,234.26
2023-01-19T03:24:50.887Z,233.09
2023-01-19T03:25:48.937Z,234.93
2023-01-19T03:26:49.063Z,235.94
2023-01-19T03:27:49.205Z,240.26
2023-01-19T03:28:49.311Z,242.04
2023-01-19T03:29:49.413Z,245.48
2023-01-19T03:30:50.011Z,248.64
2023-01-19T03:31:50.216Z,250.73
2023-01-19T03:32:49.752Z,251.30
2023-01-19T03:33:49.858Z,254.03
2023-01-19T03:34:49.972Z,257.62
2023-01-19T03:35:50.075Z,263.20
2023-01-19T03:36:50.207Z,265.33
2023-01-19T03:37:50.523Z,268.36
2023-01-19T03:38:50.389Z,272.83
2023-01-19T03:39:50.498Z,277.44
2023-01-19T03:40:50.589Z,279.81
2023-01-19T03:41:50.740Z,285.90
2023-01-19T03:42:50.858Z,289.18
2023-01-19T03:43:50.960Z,290.20
2023-01-19T03:44:51.069Z,292.01
2023-01-19T03:45:51.230Z,296.49
2023-01-19T03:46:51.323Z,298.92
2023-01-19T03:47:51.420Z,301.12
2023-01-19T03:48:51.558Z,301.67
2023-01-19T03:49:51.607Z,304.47
2023-01-19T03:50:51.730Z,305.32
2023-01-19T03:51:51.842Z,305.89
2023-01-19T03:52:51.974Z,307.04
2023-01-19T03:53:52.373Z,307.61
2023-01-19T03:54:52.206Z,309.64
2023-01-19T03:55:52.337Z,308.19
2023-01-19T03:56:52.484Z,307.90
2023-01-19T03:57:52.563Z,307.61
2023-01-19T03:58:52.711Z,309.35
2023-01-19T03:59:52.827Z,312.89
2023-01-19T04:00:52.959Z,314.09
2023-01-19T04:01:53.082Z,313.49
2023-01-19T04:02:53.237Z,314.09
2023-01-19T04:03:53.284Z,315.30
2023-01-19T04:04:53.461Z,318.05
2023-01-19T04:05:53.526Z,322.42
2023-01-19T04:06:53.622Z,322.74
2023-01-19T04:07:53.783Z,322.74
2023-01-19T04:08:53.835Z,323.38
2023-01-19T04:09:53.943Z,324.98
2023-01-19T04:10:54.045Z,326.60
2023-01-19T04:11:54.325Z,328.23
2023-01-19T04:12:54.280Z,327.58
2023-01-19T04:13:54.389Z,327.90
2023-01-19T04:14:54.490Z,328.23
2023-01-19T04:15:54.701Z,329.55
2023-01-19T04:16:54.708Z,329.88
2023-01-19T04:17:54.860Z,331.55
2023-01-19T04:18:54.907Z,330.55
2023-01-19T04:19:55.022Z,331.88
2023-01-19T04:20:55.142Z,332.89
2023-01-19T04:21:55.235Z,334.93
2023-01-19T04:22:55.401Z,333.91
2023-01-19T04:23:55.487Z,334.93
2023-01-19T04:24:55.612Z,335.62
2023-01-19T04:25:55.778Z,336.99
2023-01-19T04:26:55.853Z,336.65
2023-01-19T04:27:56.024Z,336.30
2023-01-19T04:28:56.092Z,335.96
2023-01-19T04:29:56.200Z,339.43
2023-01-19T04:30:56.392Z,337.69
2023-01-19T04:31:56.440Z,341.91
2023-01-19T04:32:56.601Z,339.79
2023-01-19T04:33:56.641Z,342.98
2023-01-19T04:34:56.753Z,341.91
2023-01-19T04:35:56.879Z,342.62
2023-01-19T04:36:56.962Z,343.70
2023-01-19T04:37:57.215Z,343.70
2023-01-19T04:38:57.218Z,346.97
2023-01-19T04:39:57.303Z,347.34
2023-01-19T04:40:57.429Z,348.08
2023-01-19T04:41:57.546Z,345.51
2023-01-19T04:42:57.697Z,345.51
2023-01-19T04:43:57.753Z,346.24
2023-01-19T04:44:57.851Z,344.79
2023-01-19T04:45:57.959Z,345.51
2023-01-19T04:46:58.072Z,346.61
2023-01-19T04:47:58.198Z,345.15
2023-01-19T04:48:58.313Z,348.08
2023-01-19T04:49:58.398Z,341.20
2023-01-19T04:50:58.501Z,342.98
2023-01-19T04:51:58.616Z,344.06
2023-01-19T04:52:59.095Z,344.42
2023-01-19T04:53:58.829Z,341.91
2023-01-19T04:54:58.959Z,337.69
2023-01-19T04:55:59.055Z,335.96
2023-01-19T04:56:59.146Z,334.25
2023-01-19T04:57:59.273Z,334.25
2023-01-19T04:58:59.408Z,332.89
2023-01-19T04:59:59.547Z,331.21
2023-01-19T05:00:59.632Z,327.90
2023-01-19T05:01:59.748Z,323.06
2023-01-19T05:03:00.268Z,320.85
2023-01-19T05:04:00.003Z,313.49
2023-01-19T05:05:00.117Z,309.06
2023-01-19T05:06:00.201Z,304.19
2023-01-19T05:07:00.320Z,298.92
2023-01-19T05:08:00.414Z,291.75
2023-01-19T05:09:00.556Z,280.76
2023-01-19T05:10:00.660Z,273.51
2023-01-19T05:11:00.760Z,264.68
2023-01-19T05:12:00.889Z,256.01
2023-01-19T05:13:01.481Z,248.26
2023-01-19T05:14:01.105Z,237.48
2023-01-19T05:15:01.223Z,227.12
2023-01-19T05:16:01.397Z,217.92
2023-01-19T05:17:01.429Z,207.85
2023-01-19T05:18:01.559Z,201.22
2023-01-19T05:19:01.655Z,192.26
2023-01-19T05:20:01.792Z,185.83
2023-01-19T05:21:01.867Z,178.86
2023-01-19T05:22:01.991Z,172.75
2023-01-19T05:23:02.451Z,166.54
2023-01-19T05:24:02.215Z,162.96
2023-01-19T05:25:02.317Z,157.88
2023-01-19T05:26:02.439Z,152.96
2023-01-19T05:27:02.564Z,148.86
2023-01-19T05:28:02.724Z,146.64
2023-01-19T05:29:02.784Z,142.14
2023-01-19T05:30:02.894Z,138.49
2023-01-19T05:31:03.168Z,136.00
2023-01-19T05:32:03.285Z,134.36
2023-01-19T05:33:03.469Z,130.57
2023-01-19T05:34:03.355Z,127.87
2023-01-19T05:35:03.477Z,126.52
2023-01-19T05:36:03.551Z,124.35
2023-01-19T05:37:03.658Z,122.88
2023-01-19T05:38:03.785Z,121.36
2023-01-19T05:39:03.913Z,119.28
2023-01-19T05:40:04.016Z,117.27
2023-01-19T05:41:04.118Z,116.21
2023-01-19T05:42:04.213Z,114.61
2023-01-19T05:43:04.802Z,113.06
2023-01-19T05:44:04.514Z,111.92
2023-01-19T05:45:04.595Z,110.88
2023-01-19T05:46:04.696Z,109.79
2023-01-19T05:47:04.829Z,107.59
2023-01-19T05:48:04.960Z,106.90
2023-01-19T05:49:05.237Z,106.02
2023-01-19T05:50:05.217Z,105.08
2023-01-19T05:51:05.396Z,104.89
2023-01-19T05:52:05.620Z,104.89
2023-01-19T05:53:05.590Z,104.17
2023-01-19T05:54:05.756Z,103.46
2023-01-19T05:55:05.862Z,102.44
2023-01-19T05:56:06.007Z,102.57
2023-01-19T05:57:06.113Z,101.75
2023-01-19T05:58:06.260Z,101.32
2023-01-19T05:59:06.399Z,102.19
2023-01-19T06:00:06.523Z,101.88
2023-01-19T06:01:06.772Z,101.69
2023-01-19T06:02:06.869Z,101.69
2023-01-19T06:03:06.963Z,101.01
2023-01-19T06:04:07.099Z,101.20
2023-01-19T06:05:07.222Z,101.01
2023-01-19T06:06:07.378Z,100.17
2023-01-19T06:07:07.408Z,99.86
2023-01-19T06:08:07.569Z,99.86
2023-01-19T06:09:07.694Z,99.45
2023-01-19T06:10:07.800Z,99.51
2023-01-19T06:11:07.884Z,99.57
2023-01-19T06:12:08.241Z,99.21
2023-01-19T06:13:08.160Z,99.27
2023-01-19T06:14:08.280Z,98.86
2023-01-19T06:15:08.410Z,99.15
2023-01-19T06:16:08.505Z,98.51
2023-01-19T06:17:08.619Z,98.39
2023-01-19T06:18:08.766Z,98.57
2023-01-19T06:19:08.968Z,98.16
2023-01-19T06:20:09.016Z,98.28
2023-01-19T06:21:09.124Z,97.93
2023-01-19T06:22:09.205Z,98.16
2023-01-19T06:23:09.372Z,98.28
2023-01-19T06:24:09.503Z,97.99
2023-01-19T06:25:09.594Z,97.19
2023-01-19T06:26:09.740Z,97.70
2023-01-19T06:27:09.823Z,97.42
2023-01-19T06:28:09.961Z,96.63
2023-01-19T06:29:10.065Z,97.30
2023-01-19T06:30:10.203Z,97.13
2023-01-19T06:31:10.487Z,96.85
2023-01-19T06:32:10.462Z,96.79
2023-01-19T06:33:10.531Z,96.51
2023-01-19T06:34:10.640Z,96.79
2023-01-19T06:35:10.755Z,96.74
2023-01-19T06:36:10.852Z,97.30
2023-01-19T06:37:11.000Z,97.25
2023-01-19T06:38:11.074Z,96.91
2023-01-19T06:39:11.239Z,96.46
2023-01-19T06:40:12.922Z,96.51
2023-01-19T06:41:11.399Z,96.13
2023-01-19T06:42:11.502Z,95.85
2023-01-19T06:43:11.612Z,95.52
2023-01-19T06:44:11.737Z,95.96
2023-01-19T06:45:11.829Z,95.52
2023-01-19T06:46:11.952Z,96.35
2023-01-19T06:47:15.637Z,96.18
2023-01-19T06:48:12.172Z,96.29
2023-01-19T06:49:12.289Z,96.40
2023-01-19T06:50:12.439Z,96.40
2023-01-19T06:51:12.481Z,96.13
2023-01-19T06:52:12.634Z,96.68
2023-01-19T06:53:12.689Z,96.57
2023-01-19T06:54:12.819Z,96.40
2023-01-19T06:55:12.914Z,95.90
2023-01-19T06:56:13.004Z,95.41
2023-01-19T06:57:13.117Z,95.85
2023-01-19T06:58:13.268Z,95.57
2023-01-19T06:59:13.365Z,95.57
2023-01-19T07:00:13.489Z,95.36
2023-01-19T07:01:13.658Z,94.71
2023-01-19T07:02:27.640Z,94.76
2023-01-19T07:03:14.854Z,95.63
2023-01-19T07:04:13.951Z,95.41
2023-01-19T07:05:14.080Z,94.92
2023-01-19T07:06:14.194Z,94.39
2023-01-19T07:07:14.272Z,94.71
2023-01-19T07:08:14.461Z,94.98
2023-01-19T07:09:16.795Z,94.33
2023-01-19T07:10:14.653Z,94.76
2023-01-19T07:11:26.363Z,94.49
2023-01-19T07:12:15.929Z,94.87
2023-01-19T07:13:14.965Z,94.76
2023-01-19T07:14:15.094Z,94.28
2023-01-19T07:15:15.253Z,95.19
2023-01-19T07:16:15.320Z,94.98
2023-01-19T07:17:15.429Z,95.30
2023-01-19T07:18:15.543Z,94.65
2023-01-19T07:19:15.636Z,94.82
2023-01-19T07:20:15.798Z,95.14
2023-01-19T07:21:15.856Z,94.65
2023-01-19T07:22:16.007Z,94.39
2023-01-19T07:23:16.080Z,95.36
2023-01-19T07:24:16.200Z,95.19
2023-01-19T07:25:16.314Z,94.65
2023-01-19T07:26:16.415Z,95.41
2023-01-19T07:27:16.555Z,95.47
2023-01-19T07:28:16.674Z,94.65
2023-01-19T07:29:16.769Z,94.65
2023-01-19T07:30:16.887Z,94.82
2023-01-19T07:31:17.218Z,94.49
2023-01-19T07:32:17.222Z,94.92
2023-01-19T07:33:17.272Z,95.08
2023-01-19T07:34:17.393Z,94.98
2023-01-19T07:35:17.992Z,94.76
2023-01-19T07:36:17.564Z,94.87
2023-01-19T07:37:17.673Z,94.65
2023-01-19T07:38:17.788Z,94.60
2023-01-19T07:39:17.881Z,94.87
2023-01-19T07:40:18.040Z,94.44
2023-01-19T07:41:18.099Z,94.12
2023-01-19T07:42:18.196Z,94.44
2023-01-19T07:43:18.309Z,95.30
2023-01-19T07:44:18.418Z,94.44
2023-01-19T07:45:18.549Z,94.87
2023-01-19T07:46:18.724Z,94.55
2023-01-19T07:47:18.754Z,95.08
2023-01-19T07:48:18.855Z,94.87
2023-01-19T07:49:18.966Z,95.63
2023-01-19T07:50:19.117Z,94.44
2023-01-19T07:51:19.273Z,94.60
2023-01-19T07:52:19.389Z,94.82
2023-01-19T07:53:19.404Z,95.57
2023-01-19T07:54:19.504Z,95.25
2023-01-19T07:55:19.636Z,95.19
2023-01-19T07:56:19.704Z,95.14
2023-01-19T07:57:19.803Z,95.30
2023-01-19T07:58:19.912Z,95.63
2023-01-19T07:59:20.034Z,95.96
2023-01-19T08:00:20.174Z,95.63
2023-01-19T08:01:20.451Z,95.79
2023-01-19T08:02:20.452Z,95.63
2023-01-19T08:03:20.518Z,94.71
2023-01-19T08:04:20.667Z,95.63
2023-01-19T08:05:20.784Z,95.52
2023-01-19T08:06:20.857Z,95.30
2023-01-19T08:07:20.951Z,96.18
2023-01-19T08:08:21.077Z,96.18
2023-01-19T08:09:21.195Z,95.74
2023-01-19T08:10:21.336Z,95.47
2023-01-19T08:11:21.393Z,95.41
2023-01-19T08:12:21.499Z,95.74
2023-01-19T08:13:21.684Z,95.52
2023-01-19T08:14:21.734Z,95.85
2023-01-19T08:15:21.977Z,96.18
2023-01-19T08:16:21.934Z,95.52
2023-01-19T08:17:22.042Z,95.68
2023-01-19T08:18:22.179Z,95.85
2023-01-19T08:19:22.254Z,96.07
2023-01-19T08:20:22.405Z,96.57
2023-01-19T08:21:22.474Z,95.68
2023-01-19T08:22:22.611Z,96.24
2023-01-19T08:23:22.797Z,95.47
2023-01-19T08:24:22.894Z,96.51
2023-01-19T08:25:22.992Z,95.90
2023-01-19T08:26:23.089Z,96.01
2023-01-19T08:27:23.212Z,95.52
2023-01-19T08:28:23.264Z,96.01
2023-01-19T08:29:23.405Z,96.29
2023-01-19T08:30:23.611Z,96.07
2023-01-19T08:31:24.957Z,96.24
2023-01-19T08:32:23.762Z,96.40
2023-01-19T08:33:23.833Z,96.51
2023-01-19T08:34:23.932Z,95.63
2023-01-19T08:35:24.095Z,96.29
2023-01-19T08:36:24.159Z,96.46
2023-01-19T08:37:24.289Z,96.13
2023-01-19T08:38:24.360Z,95.85
2023-01-19T08:39:24.486Z,95.96
2023-01-19T08:40:24.614Z,96.07
2023-01-19T08:41:24.753Z,96.01
2023-01-19T08:42:24.852Z,96.13
2023-01-19T08:43:24.970Z,96.01
2023-01-19T08:44:25.120Z,96.13
2023-01-19T08:45:25.237Z,95.90
2023-01-19T08:46:25.468Z,95.74
2023-01-19T08:47:25.502Z,95.63
2023-01-19T08:48:25.547Z,95.47
2023-01-19T08:49:25.666Z,96.01
2023-01-19T08:50:25.777Z,95.96
2023-01-19T08:51:25.875Z,95.19
2023-01-19T08:52:25.950Z,94.76
2023-01-19T08:53:26.108Z,95.41
2023-01-19T08:54:26.203Z,95.36
2023-01-19T08:55:26.304Z,95.63
2023-01-19T08:56:26.655Z,95.30
2023-01-19T08:57:26.534Z,95.68
2023-01-19T08:58:26.697Z,95.25
2023-01-19T08:59:26.742Z,95.08
2023-01-19T09:00:26.927Z,95.47
2023-01-19T09:01:27.087Z,95.25
2023-01-19T09:02:27.258Z,95.47
2023-01-19T09:03:27.269Z,95.14
2023-01-19T09:04:27.416Z,94.76
2023-01-19T09:05:27.494Z,95.36
2023-01-19T09:06:27.675Z,94.87
2023-01-19T09:07:27.807Z,94.82
2023-01-19T09:08:27.870Z,94.44
2023-01-19T09:09:28.023Z,94.65
2023-01-19T09:10:28.150Z,94.92
2023-01-19T09:11:28.271Z,94.76
2023-01-19T09:12:28.387Z,95.08
2023-01-19T09:13:28.469Z,94.71
2023-01-19T09:14:28.651Z,94.65
2023-01-19T09:15:28.735Z,94.44
2023-01-19T09:16:28.915Z,95.65
2023-01-19T09:17:29.016Z,95.65
2023-01-19T09:18:29.057Z,95.76
2023-01-19T09:19:29.158Z,94.33
2023-01-19T09:20:29.306Z,94.55
2023-01-19T09:21:29.580Z,95.87
2023-01-19T09:22:29.781Z,95.87
2023-01-19T09:23:29.784Z,95.87
2023-01-19T09:24:29.774Z,95.54
2023-01-19T09:25:29.880Z,95.54
2023-01-19T09:26:32.835Z,95.54
2023-01-19T09:27:31.015Z,95.54
2023-01-19T09:28:30.282Z,95.21
2023-01-19T09:29:30.373Z,95.32
2023-01-19T09:30:30.498Z,95.32
2023-01-19T09:31:30.732Z,95.10
2023-01-19T09:32:30.717Z,95.10
2023-01-19T09:33:30.836Z,94.25
2023-01-19T09:34:30.973Z,94.46
2023-01-19T09:35:31.086Z,95.32
2023-01-19T09:36:31.258Z,95.00
2023-01-19T09:37:31.402Z,94.57
2023-01-19T09:38:31.557Z,94.46
2023-01-19T09:39:31.762Z,94.46
2023-01-19T09:40:31.742Z,94.67
2023-01-19T09:41:31.838Z,94.25
2023-01-19T09:42:31.980Z,94.35
2023-01-19T09:43:32.070Z,94.35
2023-01-19T09:44:32.180Z,94.57
2023-01-19T09:45:32.289Z,94.03
2023-01-19T09:46:32.587Z,93.93
2023-01-19T09:47:32.605Z,93.61
2023-01-19T09:48:32.648Z,93.93
2023-01-19T09:49:32.731Z,93.40
2023-01-19T09:50:32.887Z,93.51
2023-01-19T09:51:32.969Z,93.30
2023-01-19T09:52:33.216Z,93.40
2023-01-19T09:53:33.315Z,93.40
2023-01-19T09:54:33.356Z,93.61
2023-01-19T09:55:33.470Z,93.19
2023-01-19T09:56:33.567Z,93.09
2023-01-19T09:57:33.702Z,92.88
2023-01-19T09:58:33.790Z,92.88
2023-01-19T09:59:33.889Z,92.16
2023-01-19T10:00:34.099Z,92.26
2023-01-19T10:01:35.320Z,92.57
2023-01-19T10:02:34.384Z,92.16
2023-01-19T10:03:34.442Z,91.66
2023-01-19T10:04:34.604Z,91.46
2023-01-19T10:05:34.703Z,91.26
2023-01-19T10:06:34.804Z,91.66
2023-01-19T10:07:34.910Z,91.46
2023-01-19T10:08:35.051Z,90.86
2023-01-19T10:09:35.176Z,91.36
2023-01-19T10:10:35.228Z,91.56
2023-01-19T10:11:51.566Z,90.86
2023-01-19T10:12:36.428Z,91.46
2023-01-19T10:13:35.601Z,91.06
2023-01-19T10:14:35.703Z,91.76
2023-01-19T10:15:35.799Z,91.36
2023-01-19T10:16:35.946Z,91.26
2023-01-19T10:17:36.053Z,90.96
2023-01-19T10:18:36.180Z,91.06
2023-01-19T10:19:36.258Z,90.96
2023-01-19T10:20:36.406Z,90.46
2023-01-19T10:21:36.525Z,90.37
2023-01-19T10:22:36.615Z,90.46
2023-01-19T10:23:36.795Z,90.07
2023-01-19T10:24:36.908Z,90.27
2023-01-19T10:25:37.050Z,89.98
2023-01-19T10:26:37.129Z,90.37
2023-01-19T10:27:37.325Z,89.88
2023-01-19T10:28:37.351Z,90.07
2023-01-19T10:29:37.532Z,89.88
2023-01-19T10:30:37.635Z,89.59
2023-01-19T10:31:37.872Z,89.30
2023-01-19T10:32:37.873Z,89.40
2023-01-19T10:33:37.926Z,88.73
2023-01-19T10:34:38.046Z,88.92
2023-01-19T10:35:38.190Z,88.73
2023-01-19T10:36:38.242Z,88.54
2023-01-19T10:37:38.424Z,88.08
2023-01-19T10:38:38.525Z,87.98
2023-01-19T10:39:38.916Z,87.89
2023-01-19T10:40:38.744Z,87.89
2023-01-19T10:41:38.877Z,88.45
2023-01-19T10:42:39.005Z,88.08
2023-01-19T10:43:39.094Z,88.08
2023-01-19T10:44:39.198Z,87.71
2023-01-19T10:45:39.345Z,87.61
2023-01-19T10:46:39.449Z,87.34
2023-01-19T10:47:39.621Z,87.52
2023-01-19T10:48:39.726Z,87.25
2023-01-19T10:49:39.817Z,87.25
2023-01-19T10:50:39.990Z,87.25
2023-01-19T10:51:40.087Z,87.34
2023-01-19T10:52:40.266Z,87.16
2023-01-19T10:53:40.299Z,87.34
2023-01-19T10:54:40.374Z,87.07
2023-01-19T10:55:40.507Z,86.97
2023-01-19T10:56:40.672Z,87.43
2023-01-19T10:57:40.955Z,86.35
2023-01-19T10:58:40.977Z,86.52
2023-01-19T10:59:41.006Z,86.61
2023-01-19T11:00:41.150Z,86.70
2023-01-19T11:01:41.403Z,86.43
2023-01-19T11:02:41.406Z,86.35
2023-01-19T11:03:41.510Z,85.99
2023-01-19T11:04:41.591Z,85.64
2023-01-19T11:05:41.796Z,85.20
2023-01-19T11:06:41.860Z,85.29
2023-01-19T11:07:41.995Z,84.94
2023-01-19T11:08:42.080Z,85.29
2023-01-19T11:09:42.241Z,84.94
2023-01-19T11:10:42.477Z,84.68
2023-01-19T11:11:42.493Z,84.94
2023-01-19T11:12:42.670Z,84.68
2023-01-19T11:13:42.747Z,84.85
2023-01-19T11:14:42.827Z,84.51
2023-01-19T11:15:49.948Z,84.68
2023-01-19T11:16:43.026Z,85.20
2023-01-19T11:17:43.243Z,84.77
2023-01-19T11:18:43.283Z,84.77
2023-01-19T11:19:43.385Z,84.42
2023-01-19T11:20:43.482Z,84.42
2023-01-19T11:21:43.596Z,84.00
2023-01-19T11:22:43.725Z,83.58
2023-01-19T11:23:43.831Z,83.75
2023-01-19T11:24:43.930Z,83.83
2023-01-19T11:25:44.014Z,83.58
2023-01-19T11:26:44.179Z,83.91
2023-01-19T11:27:44.400Z,83.41
2023-01-19T11:28:45.092Z,83.33
2023-01-19T11:29:44.555Z,83.08
2023-01-19T11:30:44.723Z,83.16
2023-01-19T11:31:44.842Z,83.00
2023-01-19T11:32:44.958Z,82.75
2023-01-19T11:33:45.053Z,83.00
2023-01-19T11:34:45.159Z,82.58
2023-01-19T11:35:45.297Z,82.91
2023-01-19T11:36:45.388Z,82.50
2023-01-19T11:37:45.558Z,82.83
2023-01-19T11:38:45.658Z,83.24
2023-01-19T11:39:45.813Z,82.75
2023-01-19T11:40:45.919Z,82.58
2023-01-19T11:41:46.040Z,82.50
2023-01-19T11:42:46.190Z,82.42
2023-01-19T11:43:49.280Z,82.58
2023-01-19T11:44:46.425Z,82.50
2023-01-19T11:45:46.544Z,82.75
2023-01-19T11:46:49.094Z,82.83
2023-01-19T11:47:46.782Z,82.50
2023-01-19T11:48:46.888Z,82.50
2023-01-19T11:49:46.977Z,82.83
2023-01-19T11:50:47.115Z,82.42
2023-01-19T11:51:47.266Z,82.50
2023-01-19T11:52:47.439Z,82.02
2023-01-19T11:53:47.488Z,82.42
2023-01-19T11:54:47.577Z,82.58
2023-01-19T11:55:47.671Z,82.10
2023-01-19T11:56:47.771Z,81.86
2023-01-19T11:57:47.905Z,82.34
2023-01-19T11:58:48.003Z,81.94
2023-01-19T11:59:49.697Z,81.78
2023-01-19T12:00:48.387Z,81.38
2023-01-19T12:01:48.390Z,81.46
2023-01-19T12:02:48.609Z,81.22
2023-01-19T12:03:49.240Z,81.38
2023-01-19T12:04:48.688Z,81.61
2023-01-19T12:05:48.834Z,80.75
2023-01-19T12:06:48.977Z,80.75
2023-01-19T12:07:49.286Z,80.82
2023-01-19T12:08:49.230Z,80.98
2023-01-19T12:09:49.329Z,81.06
2023-01-19T12:10:49.467Z,81.14
2023-01-19T12:11:49.571Z,80.98
2023-01-19T12:12:49.736Z,81.22
2023-01-19T12:13:49.827Z,81.14
2023-01-19T12:14:49.978Z,80.98
2023-01-19T12:15:50.368Z,81.69
2023-01-19T12:16:50.235Z,81.69
2023-01-19T12:17:50.359Z,82.10
2023-01-19T12:18:50.416Z,82.42
2023-01-19T12:19:50.527Z,82.67
2023-01-19T12:20:50.629Z,82.75
2023-01-19T12:21:50.711Z,82.58
2023-01-19T12:22:50.900Z,83.08
2023-01-19T12:23:51.003Z,83.08
2023-01-19T12:24:51.082Z,82.91
2023-01-19T12:25:52.292Z,82.83
2023-01-19T12:26:51.353Z,83.49
2023-01-19T12:27:51.477Z,83.33
2023-01-19T12:28:51.551Z,83.49
2023-01-19T12:29:51.714Z,83.75
2023-01-19T12:30:51.947Z,83.66
2023-01-19T12:31:52.059Z,84.08
2023-01-19T12:32:52.089Z,84.42
2023-01-19T12:33:52.166Z,85.03
2023-01-19T12:34:52.322Z,85.20
2023-01-19T12:35:52.460Z,84.94
2023-01-19T12:36:52.574Z,84.00
2023-01-19T12:37:52.658Z,84.25
2023-01-19T12:38:52.755Z,84.08
2023-01-19T12:39:52.918Z,84.51
2023-01-19T12:40:52.998Z,84.25
2023-01-19T12:41:53.111Z,85.11